sensor_id;sensor_type;location;lat;lon;timestamp;P1;durP1;ratioP1;P2;durP2;ratioP2
39880;SDS011;25554;44.954;10.068;2023-02-01T00:00:14;17.48;;;9.65;;
39880;SDS011;25554;44.954;10.068;2023-02-01T00:02:41;21.05;;;10.38;;
39880;SDS011;25554;44.954;10.068;2023-02-01T00:05:08;20.00;;;9.95;;
39880;SDS011;25554;44.954;10.068;2023-02-01T00:07:35;19.25;;;9.93;;
39880;SDS011;25554;44.954;10.068;2023-02-01T00:10:03;20.25;;;11.13;;
39880;SDS011;25554;44.954;10.068;2023-02-01T00:12:30;19.17;;;10.48;;
39880;SDS011;25554;44.954;10.068;2023-02-01T00:14:57;19.17;;;10.45;;
39880;SDS011;25554;44.954;10.068;2023-02-01T00:17:24;17.90;;;10.05;;
39880;SDS011;25554;44.954;10.068;2023-02-01T00:19:50;19.02;;;9.85;;
39880;SDS011;25554;44.954;10.068;2023-02-01T00:22:17;16.88;;;9.55;;
39880;SDS011;25554;44.954;10.068;2023-02-01T00:24:44;16.63;;;8.68;;
39880;SDS011;25554;44.954;10.068;2023-02-01T00:27:10;16.05;;;9.20;;
39880;SDS011;25554;44.954;10.068;2023-02-01T00:29:43;17.52;;;8.60;;
39880;SDS011;25554;44.954;10.068;2023-02-01T00:32:10;16.27;;;8.95;;
39880;SDS011;25554;44.954;10.068;2023-02-01T00:34:37;17.60;;;9.43;;
39880;SDS011;25554;44.954;10.068;2023-02-01T00:37:03;16.17;;;9.02;;
39880;SDS011;25554;44.954;10.068;2023-02-01T00:39:30;15.88;;;8.20;;
39880;SDS011;25554;44.954;10.068;2023-02-01T00:41:56;15.02;;;8.13;;
39880;SDS011;25554;44.954;10.068;2023-02-01T00:44:23;15.07;;;8.15;;
39880;SDS011;25554;44.954;10.068;2023-02-01T00:46:49;16.52;;;8.20;;
39880;SDS011;25554;44.954;10.068;2023-02-01T00:49:16;14.40;;;7.72;;
39880;SDS011;25554;44.954;10.068;2023-02-01T00:51:43;14.25;;;8.02;;
39880;SDS011;25554;44.954;10.068;2023-02-01T00:54:09;17.45;;;8.73;;
39880;SDS011;25554;44.954;10.068;2023-02-01T00:56:36;15.07;;;7.80;;
39880;SDS011;25554;44.954;10.068;2023-02-01T00:59:02;19.67;;;9.23;;
39880;SDS011;25554;44.954;10.068;2023-02-01T01:01:29;18.52;;;9.30;;
39880;SDS011;25554;44.954;10.068;2023-02-01T01:03:56;17.65;;;9.07;;
39880;SDS011;25554;44.954;10.068;2023-02-01T01:06:25;20.27;;;10.63;;
39880;SDS011;25554;44.954;10.068;2023-02-01T01:08:53;23.13;;;11.95;;
39880;SDS011;25554;44.954;10.068;2023-02-01T01:11:22;25.63;;;12.15;;
39880;SDS011;25554;44.954;10.068;2023-02-01T01:13:51;26.33;;;12.30;;
39880;SDS011;25554;44.954;10.068;2023-02-01T01:16:19;24.02;;;12.27;;
39880;SDS011;25554;44.954;10.068;2023-02-01T01:18:46;22.50;;;12.43;;
39880;SDS011;25554;44.954;10.068;2023-02-01T01:21:13;27.42;;;14.35;;
39880;SDS011;25554;44.954;10.068;2023-02-01T01:23:41;26.05;;;14.63;;
39880;SDS011;25554;44.954;10.068;2023-02-01T01:26:08;29.95;;;15.00;;
39880;SDS011;25554;44.954;10.068;2023-02-01T01:28:38;36.17;;;15.30;;
39880;SDS011;25554;44.954;10.068;2023-02-01T01:31:07;26.10;;;13.35;;
39880;SDS011;25554;44.954;10.068;2023-02-01T01:33:35;30.25;;;14.93;;
39880;SDS011;25554;44.954;10.068;2023-02-01T01:36:01;26.02;;;14.68;;
39880;SDS011;25554;44.954;10.068;2023-02-01T01:38:28;30.63;;;15.10;;
39880;SDS011;25554;44.954;10.068;2023-02-01T01:40:54;35.15;;;18.10;;
39880;SDS011;25554;44.954;10.068;2023-02-01T01:43:21;29.83;;;15.70;;
39880;SDS011;25554;44.954;10.068;2023-02-01T01:45:49;32.40;;;17.15;;
39880;SDS011;25554;44.954;10.068;2023-02-01T01:48:19;30.33;;;14.70;;
39880;SDS011;25554;44.954;10.068;2023-02-01T01:50:56;27.15;;;14.50;;
39880;SDS011;25554;44.954;10.068;2023-02-01T01:53:33;23.63;;;12.95;;
39880;SDS011;25554;44.954;10.068;2023-02-01T01:56:07;19.10;;;11.48;;
39880;SDS011;25554;44.954;10.068;2023-02-01T01:58:34;20.23;;;9.77;;
39880;SDS011;25554;44.954;10.068;2023-02-01T02:01:01;23.25;;;11.70;;
39880;SDS011;25554;44.954;10.068;2023-02-01T02:03:45;22.55;;;11.90;;
39880;SDS011;25554;44.954;10.068;2023-02-01T02:06:37;25.00;;;11.90;;
39880;SDS011;25554;44.954;10.068;2023-02-01T02:09:13;24.38;;;12.55;;
39880;SDS011;25554;44.954;10.068;2023-02-01T02:11:40;21.75;;;12.45;;
39880;SDS011;25554;44.954;10.068;2023-02-01T02:14:07;25.05;;;12.05;;
39880;SDS011;25554;44.954;10.068;2023-02-01T02:16:43;21.77;;;11.05;;
39880;SDS011;25554;44.954;10.068;2023-02-01T02:19:36;23.50;;;11.23;;
39880;SDS011;25554;44.954;10.068;2023-02-01T02:39:59;20.13;;;10.05;;
39880;SDS011;25554;44.954;10.068;2023-02-01T02:42:44;18.83;;;8.95;;
39880;SDS011;25554;44.954;10.068;2023-02-01T02:45:54;15.63;;;8.43;;
39880;SDS011;25554;44.954;10.068;2023-02-01T02:51:41;18.15;;;9.80;;
39880;SDS011;25554;44.954;10.068;2023-02-01T02:54:32;18.10;;;9.75;;
39880;SDS011;25554;44.954;10.068;2023-02-01T02:57:27;20.98;;;10.70;;
39880;SDS011;25554;44.954;10.068;2023-02-01T03:00:21;19.40;;;8.88;;
39880;SDS011;25554;44.954;10.068;2023-02-01T03:03:11;16.77;;;8.63;;
39880;SDS011;25554;44.954;10.068;2023-02-01T03:05:56;20.05;;;9.63;;
39880;SDS011;25554;44.954;10.068;2023-02-01T03:08:26;20.67;;;9.32;;
39880;SDS011;25554;44.954;10.068;2023-02-01T03:10:59;21.40;;;9.52;;
39880;SDS011;25554;44.954;10.068;2023-02-01T03:21:26;20.17;;;9.63;;
39880;SDS011;25554;44.954;10.068;2023-02-01T03:24:03;18.88;;;8.90;;
39880;SDS011;25554;44.954;10.068;2023-02-01T03:26:36;19.70;;;9.02;;
39880;SDS011;25554;44.954;10.068;2023-02-01T03:29:17;19.60;;;9.40;;
39880;SDS011;25554;44.954;10.068;2023-02-01T03:31:48;16.05;;;8.38;;
39880;SDS011;25554;44.954;10.068;2023-02-01T03:34:14;13.88;;;8.00;;
39880;SDS011;25554;44.954;10.068;2023-02-01T03:36:49;15.45;;;7.47;;
39880;SDS011;25554;44.954;10.068;2023-02-01T03:39:24;15.50;;;6.90;;
39880;SDS011;25554;44.954;10.068;2023-02-01T03:42:00;14.95;;;7.22;;
39880;SDS011;25554;44.954;10.068;2023-02-01T03:47:20;11.88;;;6.22;;
39880;SDS011;25554;44.954;10.068;2023-02-01T03:49:55;9.18;;;5.85;;
39880;SDS011;25554;44.954;10.068;2023-02-01T03:52:57;15.18;;;7.05;;
39880;SDS011;25554;44.954;10.068;2023-02-01T03:55:29;15.98;;;6.85;;
39880;SDS011;25554;44.954;10.068;2023-02-01T03:57:58;12.65;;;6.63;;
39880;SDS011;25554;44.954;10.068;2023-02-01T04:00:30;20.15;;;6.57;;
39880;SDS011;25554;44.954;10.068;2023-02-01T04:02:57;14.48;;;6.57;;
39880;SDS011;25554;44.954;10.068;2023-02-01T04:05:24;12.25;;;6.35;;
39880;SDS011;25554;44.954;10.068;2023-02-01T04:07:56;11.02;;;6.05;;
39880;SDS011;25554;44.954;10.068;2023-02-01T04:10:23;8.85;;;5.57;;
39880;SDS011;25554;44.954;10.068;2023-02-01T04:12:49;13.45;;;5.72;;
39880;SDS011;25554;44.954;10.068;2023-02-01T04:15:16;15.13;;;6.55;;
39880;SDS011;25554;44.954;10.068;2023-02-01T04:17:42;10.68;;;5.78;;
39880;SDS011;25554;44.954;10.068;2023-02-01T04:20:09;13.18;;;5.30;;
39880;SDS011;25554;44.954;10.068;2023-02-01T04:22:36;9.35;;;5.05;;
39880;SDS011;25554;44.954;10.068;2023-02-01T04:25:02;10.35;;;4.68;;
39880;SDS011;25554;44.954;10.068;2023-02-01T04:27:31;10.65;;;5.93;;
39880;SDS011;25554;44.954;10.068;2023-02-01T04:29:57;16.70;;;6.60;;
39880;SDS011;25554;44.954;10.068;2023-02-01T04:32:24;11.55;;;5.38;;
39880;SDS011;25554;44.954;10.068;2023-02-01T04:34:51;12.57;;;4.53;;
39880;SDS011;25554;44.954;10.068;2023-02-01T04:37:17;11.52;;;4.35;;
39880;SDS011;25554;44.954;10.068;2023-02-01T04:39:44;9.23;;;4.28;;
39880;SDS011;25554;44.954;10.068;2023-02-01T04:42:10;12.77;;;4.20;;
39880;SDS011;25554;44.954;10.068;2023-02-01T04:44:37;21.25;;;7.25;;
39880;SDS011;25554;44.954;10.068;2023-02-01T04:47:07;32.45;;;10.70;;
39880;SDS011;25554;44.954;10.068;2023-02-01T04:49:34;42.60;;;12.98;;
39880;SDS011;25554;44.954;10.068;2023-02-01T04:52:01;40.90;;;13.68;;
39880;SDS011;25554;44.954;10.068;2023-02-01T04:54:28;42.78;;;15.15;;
39880;SDS011;25554;44.954;10.068;2023-02-01T04:56:54;48.47;;;13.43;;
39880;SDS011;25554;44.954;10.068;2023-02-01T04:59:21;43.53;;;13.85;;
39880;SDS011;25554;44.954;10.068;2023-02-01T05:01:47;43.13;;;12.77;;
39880;SDS011;25554;44.954;10.068;2023-02-01T05:04:14;42.17;;;14.45;;
39880;SDS011;25554;44.954;10.068;2023-02-01T05:06:41;47.03;;;12.75;;
39880;SDS011;25554;44.954;10.068;2023-02-01T05:09:07;34.85;;;10.82;;
39880;SDS011;25554;44.954;10.068;2023-02-01T05:11:34;25.77;;;9.30;;
39880;SDS011;25554;44.954;10.068;2023-02-01T05:14:19;21.63;;;7.68;;
39880;SDS011;25554;44.954;10.068;2023-02-01T05:16:46;13.88;;;5.30;;
39880;SDS011;25554;44.954;10.068;2023-02-01T05:19:12;8.45;;;3.88;;
39880;SDS011;25554;44.954;10.068;2023-02-01T05:21:39;12.10;;;4.43;;
39880;SDS011;25554;44.954;10.068;2023-02-01T05:24:07;19.65;;;5.18;;
39880;SDS011;25554;44.954;10.068;2023-02-01T05:26:39;9.85;;;4.07;;
39880;SDS011;25554;44.954;10.068;2023-02-01T05:29:06;19.23;;;4.75;;
39880;SDS011;25554;44.954;10.068;2023-02-01T05:31:33;12.93;;;4.90;;
39880;SDS011;25554;44.954;10.068;2023-02-01T05:34:00;13.10;;;5.15;;
39880;SDS011;25554;44.954;10.068;2023-02-01T05:36:27;12.95;;;4.75;;
39880;SDS011;25554;44.954;10.068;2023-02-01T05:38:53;24.17;;;5.38;;
39880;SDS011;25554;44.954;10.068;2023-02-01T05:41:20;10.20;;;3.95;;
39880;SDS011;25554;44.954;10.068;2023-02-01T05:43:46;8.95;;;4.32;;
39880;SDS011;25554;44.954;10.068;2023-02-01T05:46:13;9.35;;;3.88;;
39880;SDS011;25554;44.954;10.068;2023-02-01T05:48:40;8.65;;;3.80;;
39880;SDS011;25554;44.954;10.068;2023-02-01T05:51:07;12.02;;;3.92;;
39880;SDS011;25554;44.954;10.068;2023-02-01T05:53:33;9.18;;;4.13;;
39880;SDS011;25554;44.954;10.068;2023-02-01T05:56:00;9.52;;;3.97;;
39880;SDS011;25554;44.954;10.068;2023-02-01T05:58:26;5.70;;;3.22;;
39880;SDS011;25554;44.954;10.068;2023-02-01T06:00:53;6.03;;;3.33;;
39880;SDS011;25554;44.954;10.068;2023-02-01T06:03:19;6.68;;;3.00;;
39880;SDS011;25554;44.954;10.068;2023-02-01T06:05:46;8.82;;;3.85;;
39880;SDS011;25554;44.954;10.068;2023-02-01T06:08:13;6.65;;;3.85;;
39880;SDS011;25554;44.954;10.068;2023-02-01T06:10:40;8.50;;;4.03;;
39880;SDS011;25554;44.954;10.068;2023-02-01T06:13:06;8.10;;;4.47;;
39880;SDS011;25554;44.954;10.068;2023-02-01T06:15:33;10.15;;;4.60;;
39880;SDS011;25554;44.954;10.068;2023-02-01T06:18:00;14.10;;;8.63;;
39880;SDS011;25554;44.954;10.068;2023-02-01T06:20:27;14.15;;;8.73;;
39880;SDS011;25554;44.954;10.068;2023-02-01T06:22:54;11.07;;;6.25;;
39880;SDS011;25554;44.954;10.068;2023-02-01T06:25:20;115.90;;;54.28;;
39880;SDS011;25554;44.954;10.068;2023-02-01T06:27:47;16.42;;;10.02;;
39880;SDS011;25554;44.954;10.068;2023-02-01T06:30:14;12.23;;;6.45;;
39880;SDS011;25554;44.954;10.068;2023-02-01T06:32:41;13.88;;;7.35;;
39880;SDS011;25554;44.954;10.068;2023-02-01T06:35:08;12.30;;;5.97;;
39880;SDS011;25554;44.954;10.068;2023-02-01T06:37:41;12.07;;;5.72;;
39880;SDS011;25554;44.954;10.068;2023-02-01T06:40:08;15.07;;;5.03;;
39880;SDS011;25554;44.954;10.068;2023-02-01T06:42:35;14.40;;;6.32;;
39880;SDS011;25554;44.954;10.068;2023-02-01T06:45:02;16.60;;;6.18;;
39880;SDS011;25554;44.954;10.068;2023-02-01T06:47:28;17.02;;;6.38;;
39880;SDS011;25554;44.954;10.068;2023-02-01T06:49:55;16.10;;;6.80;;
39880;SDS011;25554;44.954;10.068;2023-02-01T06:52:21;18.30;;;6.95;;
39880;SDS011;25554;44.954;10.068;2023-02-01T06:54:48;14.15;;;7.35;;
39880;SDS011;25554;44.954;10.068;2023-02-01T06:57:14;15.82;;;6.68;;
39880;SDS011;25554;44.954;10.068;2023-02-01T06:59:41;16.08;;;7.30;;
39880;SDS011;25554;44.954;10.068;2023-02-01T07:02:11;15.52;;;7.15;;
39880;SDS011;25554;44.954;10.068;2023-02-01T07:04:37;14.07;;;6.82;;
39880;SDS011;25554;44.954;10.068;2023-02-01T07:07:04;15.32;;;6.45;;
39880;SDS011;25554;44.954;10.068;2023-02-01T07:09:30;13.85;;;6.88;;
39880;SDS011;25554;44.954;10.068;2023-02-01T07:11:57;17.20;;;7.25;;
39880;SDS011;25554;44.954;10.068;2023-02-01T07:14:24;14.75;;;7.43;;
39880;SDS011;25554;44.954;10.068;2023-02-01T07:16:50;16.10;;;8.20;;
39880;SDS011;25554;44.954;10.068;2023-02-01T07:19:17;14.57;;;7.32;;
39880;SDS011;25554;44.954;10.068;2023-02-01T07:21:43;17.25;;;8.13;;
39880;SDS011;25554;44.954;10.068;2023-02-01T07:24:10;18.17;;;8.68;;
39880;SDS011;25554;44.954;10.068;2023-02-01T07:26:37;16.60;;;7.72;;
39880;SDS011;25554;44.954;10.068;2023-02-01T07:29:03;15.05;;;6.88;;
39880;SDS011;25554;44.954;10.068;2023-02-01T07:31:30;15.57;;;7.97;;
39880;SDS011;25554;44.954;10.068;2023-02-01T07:33:56;19.42;;;8.38;;
39880;SDS011;25554;44.954;10.068;2023-02-01T07:36:24;21.10;;;10.05;;
39880;SDS011;25554;44.954;10.068;2023-02-01T07:38:50;18.45;;;9.57;;
39880;SDS011;25554;44.954;10.068;2023-02-01T07:41:17;16.80;;;7.93;;
39880;SDS011;25554;44.954;10.068;2023-02-01T07:43:44;15.10;;;8.13;;
39880;SDS011;25554;44.954;10.068;2023-02-01T07:46:10;21.73;;;9.02;;
39880;SDS011;25554;44.954;10.068;2023-02-01T07:48:37;17.70;;;9.43;;
39880;SDS011;25554;44.954;10.068;2023-02-01T07:51:05;21.13;;;10.10;;
39880;SDS011;25554;44.954;10.068;2023-02-01T07:53:35;23.30;;;10.45;;
39880;SDS011;25554;44.954;10.068;2023-02-01T07:56:02;22.55;;;9.20;;
39880;SDS011;25554;44.954;10.068;2023-02-01T07:58:29;24.27;;;10.48;;
39880;SDS011;25554;44.954;10.068;2023-02-01T08:00:56;23.48;;;10.20;;
39880;SDS011;25554;44.954;10.068;2023-02-01T08:03:49;18.15;;;9.57;;
39880;SDS011;25554;44.954;10.068;2023-02-01T08:06:18;24.02;;;10.82;;
39880;SDS011;25554;44.954;10.068;2023-02-01T08:08:45;22.90;;;10.00;;
39880;SDS011;25554;44.954;10.068;2023-02-01T08:11:13;20.83;;;11.20;;
39880;SDS011;25554;44.954;10.068;2023-02-01T08:13:40;21.77;;;10.82;;
39880;SDS011;25554;44.954;10.068;2023-02-01T08:16:07;18.33;;;10.30;;
39880;SDS011;25554;44.954;10.068;2023-02-01T08:18:35;23.85;;;10.85;;
39880;SDS011;25554;44.954;10.068;2023-02-01T08:21:07;21.95;;;10.85;;
39880;SDS011;25554;44.954;10.068;2023-02-01T08:23:44;27.70;;;11.50;;
39880;SDS011;25554;44.954;10.068;2023-02-01T08:28:48;24.77;;;12.32;;
39880;SDS011;25554;44.954;10.068;2023-02-01T08:31:23;24.90;;;12.00;;
39880;SDS011;25554;44.954;10.068;2023-02-01T08:33:51;34.25;;;12.82;;
39880;SDS011;25554;44.954;10.068;2023-02-01T08:36:22;25.20;;;13.25;;
39880;SDS011;25554;44.954;10.068;2023-02-01T08:38:50;26.05;;;13.20;;
39880;SDS011;25554;44.954;10.068;2023-02-01T08:41:18;42.00;;;14.68;;
39880;SDS011;25554;44.954;10.068;2023-02-01T08:43:46;26.98;;;14.25;;
39880;SDS011;25554;44.954;10.068;2023-02-01T08:46:13;25.55;;;13.35;;
39880;SDS011;25554;44.954;10.068;2023-02-01T08:48:40;26.38;;;13.23;;
39880;SDS011;25554;44.954;10.068;2023-02-01T08:51:08;29.38;;;14.77;;
39880;SDS011;25554;44.954;10.068;2023-02-01T08:53:37;27.83;;;13.82;;
39880;SDS011;25554;44.954;10.068;2023-02-01T08:56:05;26.80;;;13.85;;
39880;SDS011;25554;44.954;10.068;2023-02-01T08:58:32;23.27;;;14.27;;
39880;SDS011;25554;44.954;10.068;2023-02-01T09:01:03;28.88;;;15.55;;
39880;SDS011;25554;44.954;10.068;2023-02-01T09:03:30;35.97;;;17.67;;
39880;SDS011;25554;44.954;10.068;2023-02-01T09:06:03;32.72;;;17.60;;
39880;SDS011;25554;44.954;10.068;2023-02-01T09:08:34;40.25;;;16.27;;
39880;SDS011;25554;44.954;10.068;2023-02-01T09:11:03;31.83;;;16.40;;
39880;SDS011;25554;44.954;10.068;2023-02-01T09:13:34;26.75;;;16.00;;
39880;SDS011;25554;44.954;10.068;2023-02-01T09:16:01;32.33;;;17.05;;
39880;SDS011;25554;44.954;10.068;2023-02-01T09:18:27;27.73;;;16.10;;
39880;SDS011;25554;44.954;10.068;2023-02-01T09:20:54;28.23;;;16.38;;
39880;SDS011;25554;44.954;10.068;2023-02-01T09:23:21;33.58;;;17.48;;
39880;SDS011;25554;44.954;10.068;2023-02-01T09:25:48;30.42;;;16.67;;
39880;SDS011;25554;44.954;10.068;2023-02-01T09:28:18;29.60;;;16.75;;
39880;SDS011;25554;44.954;10.068;2023-02-01T09:30:44;26.90;;;16.77;;
39880;SDS011;25554;44.954;10.068;2023-02-01T09:33:11;35.97;;;18.98;;
39880;SDS011;25554;44.954;10.068;2023-02-01T09:35:37;31.08;;;16.90;;
39880;SDS011;25554;44.954;10.068;2023-02-01T09:38:04;32.22;;;17.80;;
39880;SDS011;25554;44.954;10.068;2023-02-01T09:40:31;43.38;;;17.35;;
39880;SDS011;25554;44.954;10.068;2023-02-01T09:48:41;32.33;;;17.73;;
39880;SDS011;25554;44.954;10.068;2023-02-01T09:51:20;36.15;;;19.08;;
39880;SDS011;25554;44.954;10.068;2023-02-01T09:53:56;31.10;;;18.13;;
39880;SDS011;25554;44.954;10.068;2023-02-01T09:56:29;39.33;;;19.13;;
39880;SDS011;25554;44.954;10.068;2023-02-01T10:04:44;34.95;;;19.67;;
39880;SDS011;25554;44.954;10.068;2023-02-01T10:10:30;34.20;;;18.88;;
39880;SDS011;25554;44.954;10.068;2023-02-01T10:24:11;36.33;;;19.10;;
39880;SDS011;25554;44.954;10.068;2023-02-01T10:27:02;35.60;;;17.90;;
39880;SDS011;25554;44.954;10.068;2023-02-01T10:29:37;32.25;;;19.27;;
39880;SDS011;25554;44.954;10.068;2023-02-01T10:32:13;37.63;;;19.48;;
39880;SDS011;25554;44.954;10.068;2023-02-01T10:34:42;34.30;;;19.17;;
39880;SDS011;25554;44.954;10.068;2023-02-01T10:37:32;34.85;;;18.58;;
39880;SDS011;25554;44.954;10.068;2023-02-01T10:40:00;36.55;;;19.75;;
39880;SDS011;25554;44.954;10.068;2023-02-01T10:45:18;35.40;;;18.80;;
39880;SDS011;25554;44.954;10.068;2023-02-01T10:47:50;35.55;;;20.88;;
39880;SDS011;25554;44.954;10.068;2023-02-01T10:52:50;39.83;;;20.88;;
39880;SDS011;25554;44.954;10.068;2023-02-01T10:58:21;38.58;;;20.48;;
39880;SDS011;25554;44.954;10.068;2023-02-01T11:00:48;35.83;;;19.40;;
39880;SDS011;25554;44.954;10.068;2023-02-01T11:03:21;32.58;;;20.08;;
39880;SDS011;25554;44.954;10.068;2023-02-01T11:05:47;34.03;;;19.73;;
39880;SDS011;25554;44.954;10.068;2023-02-01T11:08:15;35.70;;;19.92;;
39880;SDS011;25554;44.954;10.068;2023-02-01T11:10:43;37.63;;;20.65;;
39880;SDS011;25554;44.954;10.068;2023-02-01T11:15:45;40.78;;;20.30;;
39880;SDS011;25554;44.954;10.068;2023-02-01T11:18:19;35.13;;;19.77;;
39880;SDS011;25554;44.954;10.068;2023-02-01T11:20:52;33.60;;;18.50;;
39880;SDS011;25554;44.954;10.068;2023-02-01T11:23:27;32.42;;;16.65;;
39880;SDS011;25554;44.954;10.068;2023-02-01T11:26:00;35.85;;;19.10;;
39880;SDS011;25554;44.954;10.068;2023-02-01T11:28:33;29.13;;;18.63;;
39880;SDS011;25554;44.954;10.068;2023-02-01T11:31:04;33.25;;;17.83;;
39880;SDS011;25554;44.954;10.068;2023-02-01T11:33:34;27.77;;;17.45;;
39880;SDS011;25554;44.954;10.068;2023-02-01T11:36:13;29.98;;;16.83;;
39880;SDS011;25554;44.954;10.068;2023-02-01T11:38:46;29.30;;;17.45;;
39880;SDS011;25554;44.954;10.068;2023-02-01T11:41:27;30.00;;;16.30;;
39880;SDS011;25554;44.954;10.068;2023-02-01T11:43:57;26.55;;;16.83;;
39880;SDS011;25554;44.954;10.068;2023-02-01T11:46:28;33.05;;;17.52;;
39880;SDS011;25554;44.954;10.068;2023-02-01T11:48:57;27.05;;;15.48;;
39880;SDS011;25554;44.954;10.068;2023-02-01T11:52:04;31.98;;;16.27;;
39880;SDS011;25554;44.954;10.068;2023-02-01T11:55:11;28.13;;;15.63;;
39880;SDS011;25554;44.954;10.068;2023-02-01T12:08:52;22.38;;;14.60;;
39880;SDS011;25554;44.954;10.068;2023-02-01T12:19:12;30.08;;;16.80;;
39880;SDS011;25554;44.954;10.068;2023-02-01T12:21:52;29.35;;;16.40;;
39880;SDS011;25554;44.954;10.068;2023-02-01T12:40:49;24.95;;;15.40;;
39880;SDS011;25554;44.954;10.068;2023-02-01T12:49:11;28.15;;;16.63;;
39880;SDS011;25554;44.954;10.068;2023-02-01T12:51:59;35.75;;;15.63;;
39880;SDS011;25554;44.954;10.068;2023-02-01T12:54:36;32.85;;;16.50;;
39880;SDS011;25554;44.954;10.068;2023-02-01T12:57:21;27.55;;;16.08;;
39880;SDS011;25554;44.954;10.068;2023-02-01T12:59:56;31.60;;;17.48;;
39880;SDS011;25554;44.954;10.068;2023-02-01T13:02:28;30.27;;;16.90;;
39880;SDS011;25554;44.954;10.068;2023-02-01T13:05:16;26.65;;;17.00;;
39880;SDS011;25554;44.954;10.068;2023-02-01T13:07:46;30.60;;;17.05;;
39880;SDS011;25554;44.954;10.068;2023-02-01T13:15:23;29.85;;;16.55;;
39880;SDS011;25554;44.954;10.068;2023-02-01T13:17:57;31.10;;;17.63;;
39880;SDS011;25554;44.954;10.068;2023-02-01T13:20:38;33.03;;;16.90;;
39880;SDS011;25554;44.954;10.068;2023-02-01T13:26:03;31.90;;;18.90;;
39880;SDS011;25554;44.954;10.068;2023-02-01T13:45:22;29.85;;;16.45;;
39880;SDS011;25554;44.954;10.068;2023-02-01T13:47:53;36.67;;;18.30;;
39880;SDS011;25554;44.954;10.068;2023-02-01T13:50:24;29.17;;;17.63;;
39880;SDS011;25554;44.954;10.068;2023-02-01T13:55:36;24.90;;;15.05;;
39880;SDS011;25554;44.954;10.068;2023-02-01T13:58:19;27.40;;;14.68;;
39880;SDS011;25554;44.954;10.068;2023-02-01T14:00:48;28.20;;;14.70;;
39880;SDS011;25554;44.954;10.068;2023-02-01T14:03:22;33.53;;;15.68;;
39880;SDS011;25554;44.954;10.068;2023-02-01T14:06:16;26.08;;;16.08;;
39880;SDS011;25554;44.954;10.068;2023-02-01T14:14:37;26.73;;;15.80;;
39880;SDS011;25554;44.954;10.068;2023-02-01T14:21:57;25.65;;;15.65;;
39880;SDS011;25554;44.954;10.068;2023-02-01T14:24:27;23.20;;;14.95;;
39880;SDS011;25554;44.954;10.068;2023-02-01T14:26:55;22.35;;;14.85;;
39880;SDS011;25554;44.954;10.068;2023-02-01T14:29:31;28.33;;;15.68;;
39880;SDS011;25554;44.954;10.068;2023-02-01T14:37:09;25.05;;;16.67;;
39880;SDS011;25554;44.954;10.068;2023-02-01T14:44:44;28.52;;;17.20;;
39880;SDS011;25554;44.954;10.068;2023-02-01T14:52:20;26.40;;;16.35;;
39880;SDS011;25554;44.954;10.068;2023-02-01T14:54:54;32.53;;;16.95;;
39880;SDS011;25554;44.954;10.068;2023-02-01T14:57:24;26.55;;;17.02;;
39880;SDS011;25554;44.954;10.068;2023-02-01T14:59:55;27.38;;;16.50;;
39880;SDS011;25554;44.954;10.068;2023-02-01T15:02:30;27.00;;;17.30;;
39880;SDS011;25554;44.954;10.068;2023-02-01T15:05:00;28.52;;;17.52;;
39880;SDS011;25554;44.954;10.068;2023-02-01T15:07:27;26.38;;;15.43;;
39880;SDS011;25554;44.954;10.068;2023-02-01T15:09:55;28.70;;;17.45;;
39880;SDS011;25554;44.954;10.068;2023-02-01T15:12:25;32.55;;;17.70;;
39880;SDS011;25554;44.954;10.068;2023-02-01T15:20:27;25.73;;;16.02;;
39880;SDS011;25554;44.954;10.068;2023-02-01T15:22:58;31.70;;;17.58;;
39880;SDS011;25554;44.954;10.068;2023-02-01T15:25:27;24.73;;;16.15;;
39880;SDS011;25554;44.954;10.068;2023-02-01T15:28:02;24.23;;;15.60;;
39880;SDS011;25554;44.954;10.068;2023-02-01T15:30:30;39.20;;;21.50;;
39880;SDS011;25554;44.954;10.068;2023-02-01T15:33:06;43.50;;;21.42;;
39880;SDS011;25554;44.954;10.068;2023-02-01T15:43:21;28.20;;;16.55;;
39880;SDS011;25554;44.954;10.068;2023-02-01T15:48:16;21.42;;;14.90;;
39880;SDS011;25554;44.954;10.068;2023-02-01T15:50:49;35.10;;;20.15;;
39880;SDS011;25554;44.954;10.068;2023-02-01T15:53:18;35.35;;;18.33;;
39880;SDS011;25554;44.954;10.068;2023-02-01T15:55:47;32.40;;;17.45;;
39880;SDS011;25554;44.954;10.068;2023-02-01T15:58:20;29.50;;;16.52;;
39880;SDS011;25554;44.954;10.068;2023-02-01T16:00:55;30.77;;;17.20;;
39880;SDS011;25554;44.954;10.068;2023-02-01T16:08:25;23.27;;;13.85;;
39880;SDS011;25554;44.954;10.068;2023-02-01T16:10:54;25.90;;;15.57;;
39880;SDS011;25554;44.954;10.068;2023-02-01T16:13:26;31.58;;;16.92;;
39880;SDS011;25554;44.954;10.068;2023-02-01T16:18:19;61.50;;;20.75;;
39880;SDS011;25554;44.954;10.068;2023-02-01T16:23:12;47.20;;;21.30;;
39880;SDS011;25554;44.954;10.068;2023-02-01T16:25:39;38.33;;;20.50;;
39880;SDS011;25554;44.954;10.068;2023-02-01T16:28:06;36.38;;;19.55;;
39880;SDS011;25554;44.954;10.068;2023-02-01T16:30:33;36.90;;;20.45;;
39880;SDS011;25554;44.954;10.068;2023-02-01T16:33:01;40.28;;;20.92;;
39880;SDS011;25554;44.954;10.068;2023-02-01T16:35:32;58.83;;;22.25;;
39880;SDS011;25554;44.954;10.068;2023-02-01T16:38:10;57.10;;;23.52;;
39880;SDS011;25554;44.954;10.068;2023-02-01T16:40:42;51.13;;;25.75;;
39880;SDS011;25554;44.954;10.068;2023-02-01T16:43:12;50.22;;;22.00;;
39880;SDS011;25554;44.954;10.068;2023-02-01T16:45:44;39.75;;;20.60;;
39880;SDS011;25554;44.954;10.068;2023-02-01T16:53:19;39.63;;;21.05;;
39880;SDS011;25554;44.954;10.068;2023-02-01T16:55:46;41.33;;;21.60;;
39880;SDS011;25554;44.954;10.068;2023-02-01T16:58:15;35.70;;;20.13;;
39880;SDS011;25554;44.954;10.068;2023-02-01T17:00:42;34.85;;;20.10;;
39880;SDS011;25554;44.954;10.068;2023-02-01T17:03:10;52.40;;;23.00;;
39880;SDS011;25554;44.954;10.068;2023-02-01T17:05:45;46.35;;;23.27;;
39880;SDS011;25554;44.954;10.068;2023-02-01T17:08:15;40.08;;;22.60;;
39880;SDS011;25554;44.954;10.068;2023-02-01T17:10:44;41.80;;;22.33;;
39880;SDS011;25554;44.954;10.068;2023-02-01T17:13:12;53.03;;;23.42;;
39880;SDS011;25554;44.954;10.068;2023-02-01T17:15:40;48.38;;;22.75;;
39880;SDS011;25554;44.954;10.068;2023-02-01T17:18:15;46.97;;;23.67;;
39880;SDS011;25554;44.954;10.068;2023-02-01T17:20:43;56.08;;;23.55;;
39880;SDS011;25554;44.954;10.068;2023-02-01T17:23:13;48.05;;;20.75;;
39880;SDS011;25554;44.954;10.068;2023-02-01T17:25:41;43.15;;;20.98;;
39880;SDS011;25554;44.954;10.068;2023-02-01T17:28:07;37.45;;;20.35;;
39880;SDS011;25554;44.954;10.068;2023-02-01T17:30:34;43.92;;;21.55;;
39880;SDS011;25554;44.954;10.068;2023-02-01T17:33:02;46.33;;;20.85;;
39880;SDS011;25554;44.954;10.068;2023-02-01T17:35:29;50.50;;;23.17;;
39880;SDS011;25554;44.954;10.068;2023-02-01T17:37:56;50.97;;;22.38;;
39880;SDS011;25554;44.954;10.068;2023-02-01T17:40:23;48.50;;;23.67;;
39880;SDS011;25554;44.954;10.068;2023-02-01T17:42:50;48.72;;;24.30;;
39880;SDS011;25554;44.954;10.068;2023-02-01T17:45:19;44.92;;;23.17;;
39880;SDS011;25554;44.954;10.068;2023-02-01T17:48:02;54.70;;;25.08;;